createdAt,value
2018-07-05T00:00:00.715Z,12
2018-07-05T00:01:00.710Z,15
2018-07-05T00:02:00.751Z,17
2018-07-05T00:04:00.711Z,19
2018-07-05T00:06:00.714Z,17
2018-07-05T00:07:00.745Z,15
2018-07-05T00:08:00.713Z,14
2018-07-05T00:09:00.712Z,12
2018-07-05T00:13:00.753Z,14
2018-07-05T00:14:00.712Z,15
2018-07-05T00:15:00.718Z,14
2018-07-05T00:18:00.759Z,15
2018-07-05T00:20:00.843Z,14
2018-07-05T00:21:00.719Z,17
2018-07-05T00:23:00.753Z,15
2018-07-05T00:25:00.716Z,17
2018-07-05T00:26:00.720Z,16
2018-07-05T00:30:02.860Z,17
2018-07-05T00:32:00.714Z,19
2018-07-05T00:33:00.715Z,21
2018-07-05T00:34:00.717Z,22
2018-07-05T00:36:00.745Z,21
2018-07-05T00:37:00.713Z,20
2018-07-05T00:38:00.714Z,18
2018-07-05T00:39:00.716Z,16
2018-07-05T00:40:00.741Z,15
2018-07-05T00:41:00.714Z,16
2018-07-05T00:42:00.713Z,17
2018-07-05T00:43:00.714Z,18
2018-07-05T00:44:00.716Z,19
2018-07-05T00:45:00.757Z,20
2018-07-05T00:46:00.715Z,18
2018-07-05T00:47:00.725Z,15
2018-07-05T00:50:00.757Z,14
2018-07-05T00:51:00.717Z,15
2018-07-05T00:55:00.745Z,16
2018-07-05T00:56:00.716Z,14
2018-07-05T00:57:00.718Z,15
2018-07-05T00:58:00.715Z,17
2018-07-05T00:59:00.749Z,16
2018-07-05T01:00:00.717Z,15
2018-07-05T01:03:00.722Z,13
2018-07-05T01:04:00.743Z,15
2018-07-05T01:05:00.716Z,16
2018-07-05T01:06:00.715Z,17
2018-07-05T01:08:00.715Z,16
2018-07-05T01:11:00.843Z,15
2018-07-05T01:12:00.715Z,14
2018-07-05T01:13:00.717Z,15
2018-07-05T01:14:00.716Z,14
2018-07-05T01:15:00.743Z,14
2018-07-05T01:16:00.713Z,15
2018-07-05T01:19:00.725Z,16
2018-07-05T01:20:00.764Z,15
2018-07-05T01:21:00.718Z,17
2018-07-05T01:25:00.751Z,16
2018-07-05T01:27:00.715Z,18
2018-07-05T01:30:00.791Z,18
2018-07-05T01:31:00.721Z,16
2018-07-05T01:32:00.715Z,17
2018-07-05T01:34:00.722Z,15
2018-07-05T01:35:00.763Z,16
2018-07-05T01:37:00.721Z,15
2018-07-05T01:38:00.715Z,14
2018-07-05T01:39:00.716Z,16
2018-07-05T01:40:00.775Z,15
2018-07-05T01:42:00.722Z,14
2018-07-05T01:44:00.719Z,13
2018-07-05T01:45:00.755Z,13
2018-07-05T01:48:00.720Z,14
2018-07-05T01:50:00.792Z,16
2018-07-05T01:52:00.720Z,17
2018-07-05T01:54:00.722Z,16
2018-07-05T01:55:00.721Z,17
2018-07-05T01:56:00.719Z,15
2018-07-05T01:57:00.726Z,14
2018-07-05T01:58:00.719Z,15
2018-07-05T01:59:00.725Z,16
2018-07-05T02:00:00.720Z,17
2018-07-05T02:01:00.728Z,20
2018-07-05T02:02:00.721Z,22
2018-07-05T02:03:00.721Z,20
2018-07-05T02:04:00.748Z,19
2018-07-05T02:05:00.722Z,17
2018-07-05T02:06:00.726Z,13
2018-07-05T02:07:00.730Z,12
2018-07-05T02:08:00.752Z,13
2018-07-05T02:09:00.722Z,12
2018-07-05T02:10:00.722Z,13
2018-07-05T02:11:00.726Z,16
2018-07-05T02:14:00.728Z,18
2018-07-05T02:15:00.744Z,19
2018-07-05T02:16:00.777Z,18
2018-07-05T02:17:00.726Z,19
2018-07-05T02:19:01.751Z,18
2018-07-05T02:20:00.721Z,17
2018-07-05T02:21:00.726Z,16
2018-07-05T02:23:00.759Z,15
2018-07-05T02:24:00.721Z,17
2018-07-05T02:25:00.733Z,16
2018-07-05T02:26:00.725Z,15
2018-07-05T02:27:00.728Z,16
2018-07-05T02:29:00.850Z,15
2018-07-05T02:30:00.728Z,15
2018-07-05T02:31:00.730Z,17
2018-07-05T02:32:00.724Z,15
2018-07-05T02:33:00.749Z,16
2018-07-05T02:34:00.721Z,15
2018-07-05T02:35:00.728Z,17
2018-07-05T02:36:00.722Z,14
2018-07-05T02:38:00.724Z,13
2018-07-05T02:39:00.722Z,14
2018-07-05T02:40:00.721Z,15
2018-07-05T02:41:00.721Z,17
2018-07-05T02:42:00.749Z,18
2018-07-05T02:43:00.719Z,19
2018-07-05T02:44:00.720Z,17
2018-07-05T02:45:00.729Z,16
2018-07-05T02:47:00.748Z,15
2018-07-05T02:48:00.728Z,16
2018-07-05T02:49:00.724Z,18
2018-07-05T02:50:00.720Z,17
2018-07-05T02:51:00.720Z,18
2018-07-05T02:52:00.749Z,19
2018-07-05T02:54:00.732Z,17
2018-07-05T02:56:00.727Z,16
2018-07-05T02:59:00.723Z,18
2018-07-05T03:00:00.722Z,17
2018-07-05T03:01:00.729Z,18
2018-07-05T03:03:00.721Z,19
2018-07-05T03:05:00.721Z,21
2018-07-05T03:06:00.722Z,19
2018-07-05T03:08:00.724Z,18
2018-07-05T03:09:00.735Z,17
2018-07-05T03:11:00.752Z,18
2018-07-05T03:12:00.726Z,19
2018-07-05T03:15:00.724Z,18
2018-07-05T03:16:00.752Z,17
2018-07-05T03:17:00.728Z,15
2018-07-05T03:19:00.726Z,16
2018-07-05T03:20:00.730Z,15
2018-07-05T03:21:00.757Z,16
2018-07-05T03:22:00.729Z,19
2018-07-05T03:23:00.731Z,17
2018-07-05T03:25:00.729Z,18
2018-07-05T03:26:00.759Z,16
2018-07-05T03:27:00.730Z,15
2018-07-05T03:28:00.731Z,17
2018-07-05T03:29:00.736Z,18
2018-07-05T03:30:00.731Z,18
2018-07-05T03:32:00.734Z,17
2018-07-05T03:33:00.730Z,16
2018-07-05T03:34:00.732Z,14
2018-07-05T03:36:00.767Z,15
2018-07-05T03:37:00.736Z,16
2018-07-05T03:39:00.734Z,17
2018-07-05T03:44:00.734Z,18
2018-07-05T03:45:00.769Z,18
2018-07-05T03:46:00.733Z,17
2018-07-05T03:48:00.736Z,18
2018-07-05T03:49:00.740Z,16
2018-07-05T03:50:00.763Z,15
2018-07-05T03:51:00.737Z,16
2018-07-05T03:52:00.740Z,18
2018-07-05T03:53:00.746Z,16
2018-07-05T03:54:00.750Z,17
2018-07-05T03:55:00.766Z,18
2018-07-05T03:56:00.737Z,16
2018-07-05T03:57:00.741Z,15
2018-07-05T03:58:00.742Z,16
2018-07-05T04:00:00.768Z,15
2018-07-05T04:02:00.780Z,14
2018-07-05T04:03:00.737Z,12
2018-07-05T04:04:00.736Z,13
2018-07-05T04:05:00.738Z,14
2018-07-05T04:06:00.741Z,15
2018-07-05T04:07:00.747Z,17
2018-07-05T04:08:00.744Z,18
2018-07-05T04:09:00.740Z,16
2018-07-05T04:11:00.746Z,14
2018-07-05T04:13:00.743Z,15
2018-07-05T04:15:00.742Z,16
2018-07-05T04:18:00.741Z,17
2018-07-05T04:21:00.870Z,16
2018-07-05T04:24:00.826Z,17
2018-07-05T04:25:00.811Z,18
2018-07-05T04:27:00.741Z,17
2018-07-05T04:28:00.739Z,16
2018-07-05T04:29:00.769Z,15
2018-07-05T04:30:00.743Z,15
2018-07-05T04:31:00.753Z,16
2018-07-05T04:32:00.742Z,17
2018-07-05T04:33:00.744Z,16
2018-07-05T04:34:00.772Z,17
2018-07-05T04:35:00.747Z,18
2018-07-05T04:38:00.744Z,20
2018-07-05T04:39:00.777Z,21
2018-07-05T04:40:00.748Z,19
2018-07-05T04:41:00.746Z,17
2018-07-05T04:43:00.744Z,16
2018-07-05T04:44:00.770Z,15
2018-07-05T04:45:00.743Z,14
2018-07-05T04:48:00.848Z,15
2018-07-05T04:50:00.743Z,16
2018-07-05T04:51:00.745Z,17
2018-07-05T04:52:00.746Z,19
2018-07-05T04:53:00.772Z,20
2018-07-05T04:54:00.752Z,18
2018-07-05T04:57:00.753Z,15
2018-07-05T04:59:00.744Z,16
2018-07-05T05:00:00.743Z,16
2018-07-05T05:01:00.745Z,14
2018-07-05T05:02:00.745Z,16
2018-07-05T05:03:00.776Z,15
2018-07-05T05:04:00.744Z,17
2018-07-05T05:07:00.745Z,16
2018-07-05T05:08:00.791Z,17
2018-07-05T05:09:00.745Z,16
2018-07-05T05:11:00.743Z,18
2018-07-05T05:12:00.749Z,19
2018-07-05T05:15:00.775Z,20
2018-07-05T05:16:00.746Z,17
2018-07-05T05:18:00.775Z,18
2018-07-05T05:20:00.808Z,16
2018-07-05T05:21:00.746Z,17
2018-07-05T05:22:00.744Z,18
2018-07-05T05:23:00.777Z,16
2018-07-05T05:25:00.748Z,17
2018-07-05T05:28:00.781Z,20
2018-07-05T05:29:00.753Z,18
2018-07-05T05:30:00.771Z,16
2018-07-05T05:31:00.750Z,15
2018-07-05T05:32:00.784Z,14
2018-07-05T05:33:00.746Z,13
2018-07-05T05:34:00.754Z,14
2018-07-05T05:35:00.749Z,17
2018-07-05T05:36:00.752Z,19
2018-07-05T05:37:00.784Z,20
2018-07-05T05:38:00.751Z,21
2018-07-05T05:40:00.879Z,18
2018-07-05T05:41:00.750Z,19
2018-07-05T05:42:00.801Z,18
2018-07-05T05:43:00.749Z,19
2018-07-05T05:44:00.748Z,20
2018-07-05T05:45:00.754Z,20
2018-07-05T05:47:00.796Z,19
2018-07-05T05:48:00.753Z,17
2018-07-05T05:49:05.753Z,16
2018-07-05T05:50:00.753Z,15
2018-07-05T05:51:00.749Z,14
2018-07-05T05:52:00.780Z,15
2018-07-05T05:54:00.784Z,16
2018-07-05T05:55:00.752Z,17
2018-07-05T05:56:00.750Z,18
2018-07-05T05:57:00.749Z,16
2018-07-05T05:59:00.783Z,14
2018-07-05T06:00:00.749Z,16
2018-07-05T06:01:00.750Z,15
2018-07-05T06:02:00.750Z,17
2018-07-05T06:04:00.795Z,18
2018-07-05T06:05:00.751Z,16
2018-07-05T06:06:00.754Z,15
2018-07-05T06:07:00.751Z,16
2018-07-05T06:08:00.764Z,18
2018-07-05T06:09:00.789Z,21
2018-07-05T06:12:00.757Z,19
2018-07-05T06:13:00.756Z,16
2018-07-05T06:14:00.784Z,13
2018-07-05T06:15:00.752Z,14
2018-07-05T06:17:00.752Z,15
2018-07-05T06:18:00.755Z,18
2018-07-05T06:19:00.791Z,17
2018-07-05T06:20:00.759Z,18
2018-07-05T06:22:00.777Z,16
2018-07-05T06:24:00.791Z,17
2018-07-05T06:25:00.754Z,16
2018-07-05T06:26:00.753Z,18
2018-07-05T06:29:00.852Z,19
2018-07-05T06:30:00.754Z,17
2018-07-05T06:31:00.754Z,16
2018-07-05T06:32:00.756Z,18
2018-07-05T06:33:00.755Z,16
2018-07-05T06:34:00.814Z,17
2018-07-05T06:35:00.761Z,19
2018-07-05T06:36:00.754Z,20
2018-07-05T06:37:00.754Z,19
2018-07-05T06:38:00.758Z,20
2018-07-05T06:39:00.801Z,18
2018-07-05T06:40:00.754Z,16
2018-07-05T06:41:00.764Z,15
2018-07-05T06:42:00.755Z,16
2018-07-05T06:43:00.757Z,18
2018-07-05T06:44:00.789Z,19
2018-07-05T06:45:00.760Z,21
2018-07-05T06:46:00.758Z,22
2018-07-05T06:47:00.761Z,19
2018-07-05T06:50:00.757Z,17
2018-07-05T06:51:00.757Z,18
2018-07-05T06:52:00.759Z,19
2018-07-05T06:53:00.801Z,18
2018-07-05T06:54:00.758Z,19
2018-07-05T06:56:00.755Z,18
2018-07-05T06:59:00.888Z,17
2018-07-05T07:00:00.760Z,18
2018-07-05T07:01:00.782Z,16
2018-07-05T07:02:00.756Z,17
2018-07-05T07:03:00.762Z,18
2018-07-05T07:04:00.758Z,17
2018-07-05T07:05:00.756Z,19
2018-07-05T07:10:00.824Z,18
2018-07-05T07:12:00.758Z,17
2018-07-05T07:13:00.756Z,16
2018-07-05T07:14:00.758Z,17
2018-07-05T07:15:00.789Z,16
2018-07-05T07:16:00.794Z,17
2018-07-05T07:17:00.761Z,16
2018-07-05T07:18:00.753Z,17
2018-07-05T07:21:00.926Z,16
2018-07-05T07:22:00.752Z,17
2018-07-05T07:23:00.758Z,16
2018-07-05T07:26:00.758Z,17
2018-07-05T07:27:00.756Z,18
2018-07-05T07:28:00.758Z,16
2018-07-05T07:29:00.755Z,18
2018-07-05T07:30:00.755Z,18
2018-07-05T07:32:00.836Z,16
2018-07-05T07:33:00.755Z,17
2018-07-05T07:34:00.754Z,15
2018-07-05T07:35:00.800Z,17
2018-07-05T07:36:00.754Z,16
2018-07-05T07:37:00.762Z,17
2018-07-05T07:38:00.755Z,16
2018-07-05T07:39:00.802Z,18
2018-07-05T07:40:00.789Z,16
2018-07-05T07:42:00.765Z,15
2018-07-05T07:45:00.790Z,15
2018-07-05T07:49:00.888Z,14
2018-07-05T07:50:00.760Z,15
2018-07-05T07:51:00.763Z,16
2018-07-05T07:52:00.761Z,17
2018-07-05T07:53:00.758Z,18
2018-07-05T07:54:00.757Z,19
2018-07-05T07:55:00.791Z,17
2018-07-05T07:58:00.761Z,16
2018-07-05T07:59:00.759Z,15
2018-07-05T08:00:00.790Z,18
2018-07-05T08:01:00.757Z,17
2018-07-05T08:03:00.757Z,16
2018-07-05T08:05:00.788Z,14
2018-07-05T08:06:00.756Z,17
2018-07-05T08:07:00.760Z,16
2018-07-05T08:08:00.825Z,18
2018-07-05T08:09:00.755Z,19
2018-07-05T08:10:00.761Z,20
2018-07-05T08:11:00.756Z,17
2018-07-05T08:12:00.760Z,18
2018-07-05T08:14:00.759Z,16
2018-07-05T08:15:00.826Z,16
2018-07-05T08:17:00.754Z,15
2018-07-05T08:19:00.755Z,17
2018-07-05T08:20:00.782Z,16
2018-07-05T08:23:00.756Z,15
2018-07-05T08:26:00.755Z,17
2018-07-05T08:29:00.755Z,15
2018-07-05T08:30:00.781Z,14
2018-07-05T08:31:00.760Z,13
2018-07-05T08:32:00.758Z,12
2018-07-05T08:34:00.751Z,14
2018-07-05T08:35:00.784Z,15
2018-07-05T08:36:00.753Z,18
2018-07-05T08:37:00.755Z,19
2018-07-05T08:39:00.817Z,18
2018-07-05T08:41:00.758Z,16
2018-07-05T08:42:00.753Z,15
2018-07-05T08:43:00.760Z,14
2018-07-05T08:44:00.752Z,15
2018-07-05T08:45:00.788Z,15
2018-07-05T08:46:00.754Z,16
2018-07-05T08:47:00.753Z,17
2018-07-05T08:51:00.884Z,16
2018-07-05T08:53:00.759Z,17
2018-07-05T08:54:00.754Z,16
2018-07-05T08:55:00.784Z,17
2018-07-05T08:56:00.764Z,18
2018-07-05T09:00:00.848Z,18
2018-07-05T09:01:00.754Z,17
2018-07-05T09:02:00.784Z,18
2018-07-05T09:03:00.755Z,17
2018-07-05T09:04:00.754Z,19
2018-07-05T09:06:00.802Z,20
2018-07-05T09:07:00.754Z,19
2018-07-05T09:08:00.752Z,21
2018-07-05T09:09:00.760Z,20
2018-07-05T09:10:00.754Z,18
2018-07-05T09:12:00.780Z,16
2018-07-05T09:13:00.752Z,13
2018-07-05T09:15:00.756Z,12
2018-07-05T09:16:00.779Z,11
2018-07-05T09:18:00.947Z,13
2018-07-05T09:19:00.756Z,14
2018-07-05T09:20:00.757Z,16
2018-07-05T09:21:00.779Z,18
2018-07-05T09:22:00.753Z,19
2018-07-05T09:23:00.755Z,18
2018-07-05T09:24:00.754Z,17
2018-07-05T09:26:00.806Z,18
2018-07-05T09:27:00.754Z,16
2018-07-05T09:28:00.756Z,15
2018-07-05T09:29:00.758Z,16
2018-07-05T09:30:00.758Z,17
2018-07-05T09:31:00.791Z,15
2018-07-05T09:36:00.783Z,16
2018-07-05T09:37:00.853Z,17
2018-07-05T09:38:00.757Z,16
2018-07-05T09:43:00.789Z,17
2018-07-05T09:44:00.759Z,16
2018-07-05T09:45:00.757Z,15
2018-07-05T09:46:00.758Z,16
2018-07-05T09:47:00.853Z,17
2018-07-05T09:49:00.823Z,18
2018-07-05T09:50:00.757Z,20
2018-07-05T09:52:00.789Z,19
2018-07-05T09:53:00.758Z,20
2018-07-05T09:54:00.756Z,19
2018-07-05T09:55:00.759Z,17
2018-07-05T09:57:00.782Z,18
2018-07-05T09:59:00.822Z,19
2018-07-05T10:00:00.765Z,18
2018-07-05T10:02:00.792Z,17
2018-07-05T10:03:00.756Z,18
2018-07-05T10:06:00.760Z,20
2018-07-05T10:07:00.783Z,19
2018-07-05T10:08:00.757Z,17
2018-07-05T10:09:00.757Z,16
2018-07-05T10:12:00.786Z,17
2018-07-05T10:13:00.875Z,16
2018-07-05T10:15:00.763Z,17
2018-07-05T10:19:00.861Z,19
2018-07-05T10:20:00.760Z,20
2018-07-05T10:24:00.786Z,18
2018-07-05T10:26:00.762Z,16
2018-07-05T10:28:00.794Z,17
2018-07-05T10:30:00.825Z,16
2018-07-05T10:31:00.761Z,18
2018-07-05T10:32:00.760Z,17
2018-07-05T10:33:00.862Z,16
2018-07-05T10:35:00.761Z,17
2018-07-05T10:36:00.762Z,19
2018-07-05T10:37:00.760Z,20
2018-07-05T10:38:00.791Z,21
2018-07-05T10:39:00.761Z,22
2018-07-05T10:41:00.768Z,21
2018-07-05T10:42:00.758Z,20
2018-07-05T10:43:00.808Z,19
2018-07-05T10:44:00.763Z,18
2018-07-05T10:45:00.759Z,16
2018-07-05T10:46:00.820Z,15
2018-07-05T10:48:00.797Z,16
2018-07-05T10:49:00.761Z,15
2018-07-05T10:50:00.763Z,17
2018-07-05T10:51:00.759Z,18
2018-07-05T10:54:00.791Z,20
2018-07-05T10:55:00.760Z,17
2018-07-05T10:58:00.761Z,18
2018-07-05T10:59:00.790Z,14
2018-07-05T11:00:00.760Z,16
2018-07-05T11:01:00.782Z,15
2018-07-05T11:03:00.786Z,16
2018-07-05T11:04:00.760Z,18
2018-07-05T11:06:00.762Z,19
2018-07-05T11:07:00.787Z,17
2018-07-05T11:08:00.765Z,19
2018-07-05T11:09:00.762Z,18
2018-07-05T11:10:00.771Z,20
2018-07-05T11:11:00.767Z,19
2018-07-05T11:12:00.787Z,21
2018-07-05T11:13:00.761Z,19
2018-07-05T11:15:00.766Z,18
2018-07-05T11:18:00.791Z,17
2018-07-05T11:19:00.763Z,16
2018-07-05T11:20:00.765Z,15
2018-07-05T11:21:00.828Z,17
2018-07-05T11:22:00.763Z,16
2018-07-05T11:23:00.766Z,17
2018-07-05T11:25:00.766Z,16
2018-07-05T11:26:00.795Z,14
2018-07-05T11:27:00.764Z,15
2018-07-05T11:30:00.767Z,18
2018-07-05T11:32:00.793Z,16
2018-07-05T11:33:00.767Z,15
2018-07-05T11:35:00.765Z,13
2018-07-05T11:37:00.767Z,15
2018-07-05T11:38:00.764Z,17
2018-07-05T11:40:00.831Z,18
2018-07-05T11:41:00.768Z,21
2018-07-05T11:42:00.791Z,18
2018-07-05T11:43:00.764Z,17
2018-07-05T11:44:00.764Z,16
2018-07-05T11:45:00.763Z,17
2018-07-05T11:46:00.763Z,15
2018-07-05T11:48:01.831Z,14
2018-07-05T11:49:00.764Z,15
2018-07-05T11:50:00.763Z,16
2018-07-05T11:52:00.772Z,17
2018-07-05T11:53:00.808Z,18
2018-07-05T11:54:00.767Z,19
2018-07-05T11:55:00.766Z,17
2018-07-05T11:56:00.766Z,19
2018-07-05T11:57:00.776Z,18
2018-07-05T11:59:00.859Z,16
2018-07-05T12:00:00.768Z,18
2018-07-05T12:01:00.769Z,16
2018-07-05T12:02:00.788Z,19
2018-07-05T12:03:00.767Z,17
2018-07-05T12:04:00.818Z,19
2018-07-05T12:05:00.769Z,17
2018-07-05T12:06:00.767Z,18
2018-07-05T12:07:00.768Z,16
2018-07-05T12:08:00.803Z,17
2018-07-05T12:09:00.769Z,16
2018-07-05T12:11:00.768Z,15
2018-07-05T12:12:00.769Z,16
2018-07-05T12:13:00.810Z,18
2018-07-05T12:14:00.768Z,19
2018-07-05T12:15:00.773Z,20
2018-07-05T12:16:00.770Z,21
2018-07-05T12:17:00.771Z,22
2018-07-05T12:18:00.805Z,21
2018-07-05T12:20:00.769Z,19
2018-07-05T12:21:00.769Z,20
2018-07-05T12:22:00.772Z,19
2018-07-05T12:24:00.875Z,17
2018-07-05T12:26:00.769Z,16
2018-07-05T12:28:00.803Z,17
2018-07-05T12:29:00.793Z,18
2018-07-05T12:30:00.769Z,18
2018-07-05T12:31:00.772Z,17
2018-07-05T12:32:00.768Z,19
2018-07-05T12:33:00.804Z,18
2018-07-05T12:34:00.772Z,16
2018-07-05T12:35:00.771Z,15
2018-07-05T12:37:00.773Z,14
2018-07-05T12:38:00.806Z,12
2018-07-05T12:39:00.772Z,13
2018-07-05T12:43:00.811Z,12
2018-07-05T12:45:00.777Z,12
2018-07-05T12:46:00.773Z,16
2018-07-05T12:47:00.773Z,15
2018-07-05T12:48:00.822Z,18
2018-07-05T12:49:00.773Z,19
2018-07-05T12:50:00.779Z,18
2018-07-05T12:51:00.775Z,17
2018-07-05T12:52:00.779Z,18
2018-07-05T12:53:00.800Z,17
2018-07-05T12:55:00.781Z,18
2018-07-05T12:56:00.775Z,17
2018-07-05T12:57:00.778Z,16
2018-07-05T12:58:00.812Z,14
2018-07-05T12:59:00.777Z,15
2018-07-05T13:00:00.777Z,15
2018-07-05T13:02:00.779Z,14
2018-07-05T13:04:00.906Z,15
2018-07-05T13:05:00.784Z,16
2018-07-05T13:06:00.783Z,17
2018-07-05T13:07:00.777Z,20
2018-07-05T13:08:00.780Z,19
2018-07-05T13:09:00.816Z,20
2018-07-05T13:10:00.794Z,18
2018-07-05T13:11:00.780Z,19
2018-07-05T13:12:00.781Z,16
2018-07-05T13:13:00.782Z,17
2018-07-05T13:15:00.819Z,18
2018-07-05T13:17:00.781Z,17
2018-07-05T13:19:00.787Z,18
2018-07-05T13:20:00.823Z,16
2018-07-05T13:22:00.782Z,15
2018-07-05T13:24:00.784Z,14
2018-07-05T13:25:00.821Z,15
2018-07-05T13:26:00.784Z,14
2018-07-05T13:28:00.784Z,15
2018-07-05T13:30:00.879Z,16
2018-07-05T13:31:00.792Z,17
2018-07-05T13:32:00.793Z,18
2018-07-05T13:34:00.799Z,17
2018-07-05T13:36:00.814Z,16
2018-07-05T13:37:00.785Z,18
2018-07-05T13:38:00.786Z,17
2018-07-05T13:39:00.787Z,19
2018-07-05T13:41:00.815Z,20
2018-07-05T13:42:00.791Z,19
2018-07-05T13:43:00.786Z,20
2018-07-05T13:44:00.787Z,18
2018-07-05T13:45:00.791Z,18
2018-07-05T13:47:00.819Z,19
2018-07-05T13:48:00.792Z,17
2018-07-05T13:53:00.880Z,15
2018-07-05T13:54:00.850Z,17
2018-07-05T13:57:00.822Z,16
2018-07-05T13:58:00.788Z,17
2018-07-05T13:59:00.787Z,16
2018-07-05T14:00:00.788Z,16
2018-07-05T14:01:00.796Z,14
2018-07-05T14:03:00.788Z,13
2018-07-05T14:04:00.795Z,14
2018-07-05T14:06:00.818Z,15
2018-07-05T14:07:00.789Z,16
2018-07-05T14:08:00.851Z,18
2018-07-05T14:11:00.816Z,17
2018-07-05T14:12:00.801Z,16
2018-07-05T14:14:00.794Z,15
2018-07-05T14:15:00.797Z,15
2018-07-05T14:16:00.817Z,18
2018-07-05T14:18:00.793Z,19
2018-07-05T14:21:01.910Z,17
2018-07-05T14:22:00.791Z,18
2018-07-05T14:23:00.793Z,17
2018-07-05T14:25:00.883Z,16
2018-07-05T14:27:00.825Z,17
2018-07-05T14:28:00.795Z,16
2018-07-05T14:29:00.801Z,17
2018-07-05T14:30:00.796Z,18
2018-07-05T14:31:00.795Z,17
2018-07-05T14:32:00.794Z,16
2018-07-05T14:33:00.794Z,17
2018-07-05T14:34:00.797Z,15
2018-07-05T14:35:00.848Z,16
2018-07-05T14:36:00.794Z,17
2018-07-05T14:37:00.794Z,18
2018-07-05T14:38:00.793Z,17
2018-07-05T14:42:00.822Z,15
2018-07-05T14:43:00.794Z,17
2018-07-05T14:45:00.824Z,16
2018-07-05T14:46:00.807Z,18
2018-07-05T14:48:00.793Z,20
2018-07-05T14:49:00.830Z,19
2018-07-05T14:50:00.800Z,20
2018-07-05T14:51:00.795Z,17
2018-07-05T14:52:00.796Z,16
2018-07-05T14:53:00.796Z,15
2018-07-05T14:54:00.795Z,16
2018-07-05T14:55:00.826Z,15
2018-07-05T14:56:00.794Z,17
2018-07-05T14:58:00.797Z,16
2018-07-05T14:59:00.823Z,17
2018-07-05T15:00:00.803Z,17
2018-07-05T15:02:00.826Z,20
2018-07-05T15:04:00.795Z,19
2018-07-05T15:05:05.807Z,18
2018-07-05T15:06:00.835Z,19
2018-07-05T15:07:00.797Z,17
2018-07-05T15:08:00.797Z,16
2018-07-05T15:10:00.928Z,18
2018-07-05T15:11:00.878Z,17
2018-07-05T15:14:00.803Z,16
2018-07-05T15:15:00.805Z,15
2018-07-05T15:16:00.837Z,14
2018-07-05T15:17:00.802Z,15
2018-07-05T15:19:00.801Z,16
2018-07-05T15:21:00.842Z,18
2018-07-05T15:22:00.805Z,19
2018-07-05T15:26:00.836Z,18
2018-07-05T15:27:00.807Z,17
2018-07-05T15:28:00.802Z,16
2018-07-05T15:29:00.805Z,17
2018-07-05T15:30:00.804Z,15
2018-07-05T15:31:00.828Z,14
2018-07-05T15:34:00.803Z,13
2018-07-05T15:35:00.802Z,14
2018-07-05T15:37:00.835Z,13
2018-07-05T15:41:00.846Z,15
2018-07-05T15:42:00.808Z,17
2018-07-05T15:43:00.806Z,15
2018-07-05T15:44:00.805Z,17
2018-07-05T15:45:00.813Z,16
2018-07-05T15:46:00.844Z,15
2018-07-05T15:47:00.805Z,16
2018-07-05T15:48:00.806Z,17
2018-07-05T15:50:00.877Z,19
2018-07-05T15:51:00.841Z,18
2018-07-05T15:52:00.806Z,17
2018-07-05T15:55:00.824Z,15
2018-07-05T15:56:00.842Z,16
2018-07-05T15:58:00.815Z,17
2018-07-05T15:59:00.808Z,18
2018-07-05T16:00:00.809Z,18
2018-07-05T16:01:00.845Z,20
2018-07-05T16:03:00.840Z,18
2018-07-05T16:04:00.810Z,17
2018-07-05T16:08:00.854Z,19
2018-07-05T16:09:00.819Z,18
2018-07-05T16:10:01.017Z,19
2018-07-05T16:11:00.812Z,17
2018-07-05T16:12:00.816Z,16
2018-07-05T16:13:00.846Z,15
2018-07-05T16:15:00.821Z,14
2018-07-05T16:16:00.814Z,16
2018-07-05T16:18:00.855Z,15
2018-07-05T16:19:00.818Z,16
2018-07-05T16:20:00.813Z,17
2018-07-05T16:21:00.813Z,16
2018-07-05T16:22:00.815Z,17
2018-07-05T16:24:00.820Z,16
2018-07-05T16:28:00.846Z,18
2018-07-05T16:30:00.885Z,18
2018-07-05T16:31:00.822Z,16
2018-07-05T16:32:00.816Z,15
2018-07-05T16:33:00.843Z,14
2018-07-05T16:34:00.817Z,16
2018-07-05T16:36:00.816Z,18
2018-07-05T16:37:00.830Z,19
2018-07-05T16:38:00.848Z,20
2018-07-05T16:39:00.829Z,17
2018-07-05T16:42:00.818Z,16
2018-07-05T16:43:00.884Z,14
2018-07-05T16:44:00.822Z,15
2018-07-05T16:45:00.819Z,17
2018-07-05T16:48:00.849Z,18
2018-07-05T16:49:00.817Z,19
2018-07-05T16:50:00.821Z,17
2018-07-05T16:52:00.821Z,18
2018-07-05T16:54:00.820Z,17
2018-07-05T16:55:00.817Z,18
2018-07-05T16:57:00.855Z,15
2018-07-05T16:58:00.819Z,16
2018-07-05T16:59:00.817Z,14
2018-07-05T17:00:00.821Z,15
2018-07-05T17:02:00.846Z,17
2018-07-05T17:03:00.816Z,16
2018-07-05T17:04:00.816Z,18
2018-07-05T17:06:00.818Z,19
2018-07-05T17:07:00.851Z,17
2018-07-05T17:08:00.819Z,16
2018-07-05T17:12:00.987Z,18
2018-07-05T17:14:00.833Z,19
2018-07-05T17:15:00.828Z,18
2018-07-05T17:17:00.846Z,15
2018-07-05T17:18:00.825Z,17
2018-07-05T17:19:00.823Z,15
2018-07-05T17:20:00.819Z,16
2018-07-05T17:21:00.821Z,15
2018-07-05T17:22:00.850Z,17
2018-07-05T17:23:00.816Z,18
2018-07-05T17:24:00.821Z,19
2018-07-05T17:26:00.816Z,20
2018-07-05T17:27:00.852Z,18
2018-07-05T17:28:00.821Z,15
2018-07-05T17:29:00.820Z,17
2018-07-05T17:30:00.818Z,17
2018-07-05T17:31:00.821Z,19
2018-07-05T17:33:00.819Z,18
2018-07-05T17:34:00.823Z,17
2018-07-05T17:35:00.819Z,16
2018-07-05T17:36:00.818Z,14
2018-07-05T17:37:00.823Z,15
2018-07-05T17:39:00.948Z,16
2018-07-05T17:40:00.820Z,15
2018-07-05T17:41:00.820Z,16
2018-07-05T17:43:00.859Z,15
2018-07-05T17:45:00.822Z,15
2018-07-05T17:46:00.856Z,14
2018-07-05T17:48:00.865Z,15
2018-07-05T17:50:00.822Z,13
2018-07-05T17:51:00.823Z,14
2018-07-05T17:53:00.849Z,16
2018-07-05T17:54:00.822Z,17
2018-07-05T17:59:00.889Z,18
2018-07-05T18:00:00.824Z,18
2018-07-05T18:02:00.823Z,19
2018-07-05T18:03:00.828Z,18
2018-07-05T18:04:00.831Z,16
2018-07-05T18:05:00.824Z,17
2018-07-05T18:07:00.825Z,16
2018-07-05T18:08:00.858Z,14
2018-07-05T18:09:00.823Z,15
2018-07-05T18:12:00.883Z,13
2018-07-05T18:13:00.852Z,16
2018-07-05T18:14:00.828Z,15
2018-07-05T18:15:00.827Z,15
2018-07-05T18:16:00.838Z,16
2018-07-05T18:18:00.857Z,15
2018-07-05T18:19:00.861Z,16
2018-07-05T18:23:00.853Z,17
2018-07-05T18:25:00.826Z,20
2018-07-05T18:26:00.829Z,19
2018-07-05T18:28:01.012Z,18
2018-07-05T18:29:00.825Z,20
2018-07-05T18:30:00.835Z,18
2018-07-05T18:31:00.835Z,19
2018-07-05T18:33:00.853Z,20
2018-07-05T18:34:00.877Z,17
2018-07-05T18:35:00.828Z,16
2018-07-05T18:37:00.831Z,14
2018-07-05T18:40:00.832Z,16
2018-07-05T18:41:00.835Z,17
2018-07-05T18:42:00.835Z,18
2018-07-05T18:45:00.832Z,17
2018-07-05T18:46:00.834Z,18
2018-07-05T18:47:00.851Z,17
2018-07-05T18:48:00.859Z,15
2018-07-05T18:49:00.830Z,14
2018-07-05T18:51:00.830Z,13
2018-07-05T18:52:01.068Z,14
2018-07-05T18:53:00.830Z,16
2018-07-05T18:55:00.875Z,17
2018-07-05T18:56:00.837Z,18
2018-07-05T18:57:00.859Z,17
2018-07-05T18:58:00.837Z,16
2018-07-05T18:59:00.863Z,18
2018-07-05T19:00:00.830Z,17
2018-07-05T19:01:00.833Z,16
2018-07-05T19:02:00.858Z,17
2018-07-05T19:03:00.831Z,16
2018-07-05T19:04:00.830Z,17
2018-07-05T19:05:00.829Z,16
2018-07-05T19:07:00.859Z,15
2018-07-05T19:08:00.832Z,16
2018-07-05T19:10:00.830Z,17
2018-07-05T19:11:00.828Z,15
2018-07-05T19:12:00.866Z,17
2018-07-05T19:14:00.830Z,16
2018-07-05T19:15:00.830Z,16
2018-07-05T19:16:00.889Z,18
2018-07-05T19:17:00.867Z,17
2018-07-05T19:20:00.894Z,16
2018-07-05T19:21:00.828Z,14
2018-07-05T19:22:00.861Z,15
2018-07-05T19:25:00.830Z,17
2018-07-05T19:26:00.898Z,19
2018-07-05T19:30:00.829Z,17
2018-07-05T19:31:00.829Z,16
2018-07-05T19:32:00.856Z,17
2018-07-05T19:33:00.831Z,16
2018-07-05T19:34:00.831Z,15
2018-07-05T19:35:00.830Z,16
2018-07-05T19:37:00.857Z,14
2018-07-05T19:38:00.833Z,15
2018-07-05T19:41:00.838Z,17
2018-07-05T19:43:00.829Z,16
2018-07-05T19:44:01.861Z,18
2018-07-05T19:45:00.836Z,16
2018-07-05T19:46:00.829Z,14
2018-07-05T19:47:00.886Z,15
2018-07-05T19:48:00.828Z,16
2018-07-05T19:49:00.857Z,14
2018-07-05T19:50:00.831Z,16
2018-07-05T19:54:00.834Z,19
2018-07-05T19:55:00.921Z,18
2018-07-05T19:56:00.859Z,19
2018-07-05T19:57:00.832Z,17
2018-07-05T19:58:00.831Z,18
2018-07-05T19:59:00.835Z,16
2018-07-05T20:00:00.829Z,15
2018-07-05T20:01:00.860Z,13
2018-07-05T20:02:00.857Z,14
2018-07-05T20:03:00.831Z,12
2018-07-05T20:07:00.983Z,13